Time;durP1;ratioP1;P1;durP2;ratioP2;P2;SDS_P1;SDS_P2;PMS_P1;PMS_P2;Temp;Humidity;BMP_temperature;BMP_pressure;BME280_temperature;BME280_humidity;BME280_pressure;Samples;Min_cycle;Max_cycle;Signal;HPM_P1;HPM_P2
2020/12/30 09:36:54;;;;;;;3.25;3.03;;;17.10;69.60;;;;;;5096275;27;20390;-44
2020/12/30 09:39:20;;;;;;;2.83;2.63;;;17.10;70.30;;;;;;5101849;28;20038;-45
2020/12/30 09:41:46;;;;;;;3.05;1.80;;;17.20;70.30;;;;;;4744645;27;9999703;-48
2020/12/30 09:44:12;;;;;;;2.13;1.80;;;17.20;69.70;;;;;;5100393;28;20031;-46
2020/12/30 09:46:48;;;;;;;5.13;2.38;;;17.30;70.20;;;;;;5099698;28;20016;-44
2020/12/30 09:49:13;;;;;;;1.70;1.60;;;17.30;69.60;;;;;;5102410;28;20035;-46
2020/12/30 09:51:39;;;;;;;2.30;1.80;;;17.30;69.90;;;;;;5101560;28;20023;-45
2020/12/30 09:54:04;;;;;;;5.32;2.05;;;17.30;69.50;;;;;;5100494;28;20032;-45
2020/12/30 09:56:30;;;;;;;1.88;1.75;;;17.30;69.20;;;;;;5095883;28;20028;-43
2020/12/30 09:58:55;;;;;;;4.78;2.70;;;17.30;68.90;;;;;;5091497;28;20447;-44
2020/12/30 10:01:21;;;;;;;2.45;1.73;;;17.30;68.90;;;;;;5101907;28;20019;-44
2020/12/30 10:03:47;;;;;;;5.75;3.75;;;17.30;68.80;;;;;;5087651;28;20039;-45
2020/12/30 10:06:13;;;;;;;2.47;2.17;;;17.40;68.70;;;;;;5086609;28;20028;-44
2020/12/30 10:08:40;;;;;;;2.33;2.13;;;17.40;68.80;;;;;;5088198;28;20021;-44
2020/12/30 10:11:05;;;;;;;7.45;2.40;;;17.40;68.60;;;;;;5125789;27;20028;-44
2020/12/30 10:13:31;;;;;;;2.33;2.13;;;17.40;68.40;;;;;;5104020;28;20027;-45
2020/12/30 10:15:56;;;;;;;3.03;2.03;;;17.40;68.40;;;;;;5101993;28;20154;-45
2020/12/30 10:18:22;;;;;;;2.50;2.10;;;17.40;68.40;;;;;;5092019;28;20023;-46
2020/12/30 10:20:50;;;;;;;2.60;2.40;;;17.40;68.30;;;;;;5092715;28;20029;-43
2020/12/30 10:23:16;;;;;;;5.15;2.03;;;17.50;68.50;;;;;;5094827;28;20043;-44
2020/12/30 10:25:42;;;;;;;2.17;1.98;;;17.50;68.50;;;;;;5100667;28;20082;-45
2020/12/30 10:28:07;;;;;;;4.00;1.77;;;17.50;68.80;;;;;;5105511;28;20073;-45
2020/12/30 10:30:33;;;;;;;4.70;1.80;;;17.50;69.90;;;;;;5103200;28;20031;-45
2020/12/30 10:32:59;;;;;;;3.17;2.38;;;17.50;69.30;;;;;;5100806;28;20074;-45
2020/12/30 10:35:25;;;;;;;4.18;1.80;;;17.50;69.50;;;;;;5097469;28;20048;-45
2020/12/30 10:37:51;;;;;;;4.43;2.03;;;17.60;69.60;;;;;;5090703;28;20036;-42
2020/12/30 10:40:17;;;;;;;6.25;2.05;;;17.60;69.40;;;;;;5102195;28;20044;-45
2020/12/30 10:42:42;;;;;;;5.97;2.17;;;17.60;69.40;;;;;;5089852;28;20062;-45
2020/12/30 10:45:08;;;;;;;8.25;2.30;;;17.60;69.40;;;;;;5099360;28;20028;-44
2020/12/30 10:47:34;;;;;;;3.03;2.20;;;17.70;69.40;;;;;;5093852;28;20046;-45
2020/12/30 10:50:00;;;;;;;4.53;2.28;;;17.70;69.20;;;;;;5077697;28;20551;-39
2020/12/30 10:52:25;;;;;;;11.73;2.47;;;17.70;69.20;;;;;;5119970;27;20028;-43
2020/12/30 10:54:51;;;;;;;5.95;1.75;;;17.70;70.20;;;;;;5076214;28;20036;-44
2020/12/30 10:57:17;;;;;;;7.32;2.60;;;17.70;69.10;;;;;;5078052;28;20020;-43
2020/12/30 10:59:43;;;;;;;7.30;2.00;;;17.70;69.90;;;;;;5078122;28;20408;-42
2020/12/30 11:02:08;;;;;;;8.80;2.80;;;17.80;70.80;;;;;;5081309;28;20046;-44
2020/12/30 11:04:34;;;;;;;7.15;2.20;;;17.80;71.70;;;;;;5088105;28;20404;-45
2020/12/30 11:07:01;;;;;;;9.13;2.63;;;17.90;71.30;;;;;;5089890;28;20063;-44
2020/12/30 11:09:27;;;;;;;5.03;2.50;;;17.90;73.00;;;;;;5077987;28;20031;-43
2020/12/30 11:11:53;;;;;;;5.72;2.53;;;17.90;72.00;;;;;;5077143;28;20036;-46
2020/12/30 11:14:18;;;;;;;8.63;1.80;;;17.90;71.40;;;;;;5078463;28;20111;-46
2020/12/30 11:16:48;;;;;;;8.00;2.20;;;17.90;70.80;;;;;;5081525;28;20036;-43
2020/12/30 11:19:14;;;;;;;6.50;2.30;;;17.90;71.00;;;;;;5090091;28;20479;-44
2020/12/30 11:21:39;;;;;;;17.77;2.55;;;18.00;71.20;;;;;;5086026;28;20016;-41
2020/12/30 11:24:05;;;;;;;8.90;2.75;;;18.00;71.40;;;;;;5084930;28;20427;-44
2020/12/30 11:26:30;;;;;;;7.50;2.85;;;18.00;71.20;;;;;;5089205;28;20101;-43
2020/12/30 11:28:56;;;;;;;9.93;2.80;;;18.10;71.80;;;;;;5089419;28;20032;-44
2020/12/30 11:31:22;;;;;;;5.18;2.67;;;18.10;71.30;;;;;;5087491;28;20029;-43
2020/12/30 11:33:48;;;;;;;5.07;2.20;;;18.10;71.30;;;;;;5082171;28;20061;-45
2020/12/30 11:36:13;;;;;;;4.05;2.40;;;18.00;70.40;;;;;;5090383;28;20044;-44
2020/12/30 11:38:39;;;;;;;3.35;2.25;;;18.00;70.60;;;;;;5085568;28;20052;-43
2020/12/30 11:41:05;;;;;;;5.03;2.30;;;18.00;70.50;;;;;;5085542;28;20092;-44
2020/12/30 11:43:31;;;;;;;5.63;2.20;;;18.10;70.70;;;;;;5082955;28;20085;-38
2020/12/30 11:45:56;;;;;;;2.90;2.63;;;18.10;70.50;;;;;;5085308;28;20040;-40
2020/12/30 11:48:22;;;;;;;7.38;2.90;;;18.10;70.80;;;;;;5080319;28;20072;-38
2020/12/30 11:50:48;;;;;;;5.13;3.10;;;18.10;71.50;;;;;;5078285;28;20028;-39
2020/12/30 11:53:13;;;;;;;10.15;2.95;;;18.20;71.30;;;;;;5082263;28;20028;-39
2020/12/30 11:55:39;;;;;;;10.98;2.60;;;18.30;70.50;;;;;;5083080;28;20039;-39
2020/12/30 11:58:04;;;;;;;6.00;3.13;;;18.30;70.20;;;;;;5085588;28;20528;-42
2020/12/30 12:00:32;;;;;;;9.70;2.83;;;18.40;70.00;;;;;;5087368;28;20073;-41
2020/12/30 12:02:58;;;;;;;7.53;2.45;;;18.40;69.40;;;;;;5084877;28;20047;-40
2020/12/30 12:05:23;;;;;;;8.93;3.03;;;18.40;69.30;;;;;;5085756;28;20555;-42
2020/12/30 12:07:49;;;;;;;4.40;2.33;;;18.40;68.90;;;;;;5085159;28;20092;-40
2020/12/30 12:10:15;;;;;;;7.53;2.88;;;18.50;68.50;;;;;;5084318;28;20036;-41
2020/12/30 12:12:40;;;;;;;4.47;2.55;;;18.50;68.40;;;;;;5090762;28;20031;-44
2020/12/30 12:15:06;;;;;;;7.07;1.90;;;18.40;68.00;;;;;;5088403;28;20044;-41
2020/12/30 12:17:32;;;;;;;3.08;2.05;;;18.40;68.10;;;;;;5089021;28;20031;-40
2020/12/30 12:19:57;;;;;;;6.45;2.28;;;18.40;68.00;;;;;;5088911;28;20115;-42
2020/12/30 12:22:23;;;;;;;3.67;2.03;;;18.40;67.80;;;;;;5087761;28;20399;-41
2020/12/30 12:24:48;;;;;;;3.97;2.40;;;18.40;67.70;;;;;;5089092;28;20039;-43
2020/12/30 12:27:14;;;;;;;4.57;2.08;;;18.50;67.50;;;;;;5076759;28;20529;-42
2020/12/30 12:29:41;;;;;;;3.30;1.90;;;18.50;67.30;;;;;;5084233;28;20437;-39
2020/12/30 12:32:10;;;;;;;5.45;2.25;;;18.50;67.20;;;;;;5082057;28;20024;-43
2020/12/30 12:34:37;;;;;;;3.35;2.13;;;18.50;66.80;;;;;;5084118;28;20020;-43
2020/12/30 12:37:03;;;;;;;7.57;2.30;;;18.60;66.90;;;;;;5083893;28;20473;-40
2020/12/30 12:39:28;;;;;;;3.20;1.95;;;18.60;66.70;;;;;;5086676;28;20127;-40
2020/12/30 12:41:55;;;;;;;4.68;2.30;;;18.60;66.70;;;;;;5083528;28;20036;-39
2020/12/30 12:44:21;;;;;;;3.72;1.80;;;18.60;66.50;;;;;;5083840;28;20075;-41
2020/12/30 12:46:47;;;;;;;3.40;2.05;;;18.70;66.40;;;;;;5083009;28;20036;-40
2020/12/30 12:49:13;;;;;;;5.80;1.40;;;18.70;66.50;;;;;;5083842;28;20032;-42
2020/12/30 12:51:38;;;;;;;3.80;1.58;;;18.70;66.40;;;;;;5087113;28;20678;-41
2020/12/30 12:54:05;;;;;;;2.13;1.60;;;18.70;66.30;;;;;;5084996;28;20027;-40
2020/12/30 12:56:30;;;;;;;2.40;1.70;;;18.70;66.30;;;;;;5084578;28;20066;-41
2020/12/30 12:58:56;;;;;;;4.07;1.80;;;18.70;66.30;;;;;;5083814;28;20488;-39
2020/12/30 13:01:23;;;;;;;1.95;1.50;;;18.70;66.60;;;;;;5085051;28;20032;-43
2020/12/30 13:03:49;;;;;;;2.75;1.75;;;18.70;66.60;;;;;;5081966;28;20031;-42
2020/12/30 13:06:23;;;;;;;7.93;1.70;;;18.70;66.50;;;;;;5076350;28;20036;-40
2020/12/30 13:08:49;;;;;;;5.30;1.50;;;18.60;66.60;;;;;;5080996;28;20031;-40
2020/12/30 13:11:14;;;;;;;4.75;1.70;;;18.60;66.90;;;;;;5077347;28;20028;-41
2020/12/30 13:13:40;;;;;;;6.03;1.52;;;18.60;66.80;;;;;;5081955;28;20031;-40
2020/12/30 13:16:05;;;;;;;3.92;3.35;;;18.60;66.80;;;;;;5082185;28;20028;-42
2020/12/30 13:18:31;;;;;;;10.90;3.72;;;18.60;66.80;;;;;;5084378;28;20424;-40
2020/12/30 13:20:57;;;;;;;9.05;4.88;;;18.60;66.30;;;;;;5082484;28;20032;-43
2020/12/30 13:23:23;;;;;;;7.95;5.25;;;18.70;66.30;;;;;;4734549;27;9999832;-41
2020/12/30 13:25:48;;;;;;;6.72;5.00;;;18.70;66.10;;;;;;5083375;28;20044;-41
2020/12/30 13:28:14;;;;;;;13.10;4.88;;;18.60;66.00;;;;;;5083151;28;20040;-39
2020/12/30 13:30:40;;;;;;;8.45;5.25;;;18.60;65.90;;;;;;5083344;28;20038;-41
2020/12/30 13:33:05;;;;;;;8.82;4.72;;;18.60;66.00;;;;;;5084633;28;20572;-42
2020/12/30 13:35:31;;;;;;;14.88;5.25;;;18.60;66.00;;;;;;5081600;28;20085;-42
2020/12/30 13:37:56;;;;;;;11.50;4.80;;;18.60;66.10;;;;;;5082757;28;20059;-42
2020/12/30 13:40:22;;;;;;;11.55;5.10;;;18.70;66.00;;;;;;5083777;28;20637;-44
2020/12/30 13:42:47;;;;;;;10.98;4.93;;;18.70;65.90;;;;;;5083170;28;20026;-43
2020/12/30 13:45:13;;;;;;;6.22;5.25;;;18.80;65.70;;;;;;5084139;28;20114;-42
2020/12/30 13:47:39;;;;;;;6.47;4.32;;;18.80;65.20;;;;;;5083830;28;20395;-46
2020/12/30 13:50:04;;;;;;;5.07;4.57;;;18.80;65.30;;;;;;5085583;28;20034;-43
2020/12/30 13:52:30;;;;;;;7.30;5.00;;;18.90;65.20;;;;;;5085185;28;20499;-42
2020/12/30 13:54:55;;;;;;;4.93;4.38;;;18.80;65.40;;;;;;5081977;28;20097;-45
2020/12/30 13:57:21;;;;;;;5.00;4.28;;;18.80;65.30;;;;;;5088156;28;20036;-44
2020/12/30 13:59:46;;;;;;;7.30;5.00;;;18.80;65.20;;;;;;5081953;28;20098;-41
2020/12/30 14:02:12;;;;;;;5.93;3.55;;;18.80;65.30;;;;;;5055519;28;20052;-42
2020/12/30 14:04:38;;;;;;;5.00;4.45;;;18.80;65.40;;;;;;5060678;28;20137;-42
2020/12/30 14:07:03;;;;;;;5.82;4.25;;;18.80;65.30;;;;;;5062275;28;20489;-43
2020/12/30 14:09:29;;;;;;;9.30;4.25;;;18.80;65.40;;;;;;5054937;28;20474;-41
2020/12/30 14:11:55;;;;;;;5.40;3.80;;;18.70;65.30;;;;;;5055781;28;20044;-45
2020/12/30 14:14:20;;;;;;;10.45;3.92;;;18.70;65.30;;;;;;5058752;28;20436;-45
2020/12/30 14:16:46;;;;;;;5.43;3.83;;;18.70;65.50;;;;;;5061815;28;20443;-47
2020/12/30 14:19:11;;;;;;;4.30;3.75;;;18.70;65.60;;;;;;5053563;28;20040;-44
2020/12/30 14:21:37;;;;;;;7.55;3.72;;;18.70;65.40;;;;;;5060335;28;20055;-38
2020/12/30 14:24:03;;;;;;;6.07;3.72;;;18.70;65.40;;;;;;5065016;28;20032;-45
2020/12/30 14:26:28;;;;;;;15.57;3.40;;;18.70;65.40;;;;;;5057018;28;20504;-43
2020/12/30 14:28:54;;;;;;;3.97;3.22;;;18.70;66.30;;;;;;5060771;28;20045;-41
2020/12/30 14:31:20;;;;;;;9.02;3.65;;;18.70;65.40;;;;;;5044673;28;20048;-45
2020/12/30 14:33:46;;;;;;;5.13;3.72;;;18.60;65.30;;;;;;5047417;28;20079;-43
2020/12/30 14:36:12;;;;;;;4.80;3.10;;;18.60;65.50;;;;;;5064017;28;20190;-44
2020/12/30 14:38:37;;;;;;;4.25;2.65;;;18.60;65.60;;;;;;5064935;28;20037;-43
2020/12/30 14:41:03;;;;;;;4.43;3.45;;;18.60;66.50;;;;;;5061710;28;20045;-42
2020/12/30 14:43:29;;;;;;;3.67;3.38;;;18.60;65.70;;;;;;5060311;28;20072;-44
2020/12/30 14:45:54;;;;;;;3.92;3.13;;;18.60;66.50;;;;;;5057068;28;20059;-43
2020/12/30 14:48:20;;;;;;;4.82;3.10;;;18.60;65.60;;;;;;5063214;28;20052;-42
2020/12/30 14:50:45;;;;;;;5.95;3.10;;;18.60;65.60;;;;;;5062425;28;20049;-42
2020/12/30 14:53:11;;;;;;;4.65;3.05;;;18.60;65.70;;;;;;5041754;28;20045;-43
2020/12/30 14:55:37;;;;;;;3.10;2.38;;;18.60;65.70;;;;;;5043699;28;20048;-43
2020/12/30 14:58:02;;;;;;;2.55;2.35;;;18.60;65.70;;;;;;5045252;28;20091;-44
2020/12/30 15:00:28;;;;;;;3.38;2.70;;;18.60;65.70;;;;;;5065599;28;20060;-43
2020/12/30 15:02:53;;;;;;;3.45;2.60;;;18.50;65.80;;;;;;5056099;28;20052;-43
2020/12/30 15:05:19;;;;;;;4.25;2.92;;;18.50;65.70;;;;;;5047497;28;20041;-42
2020/12/30 15:07:44;;;;;;;3.83;2.70;;;18.50;65.90;;;;;;5055428;28;20048;-42
2020/12/30 15:10:13;;;;;;;3.10;2.80;;;18.50;65.70;;;;;;5063082;28;20044;-42
2020/12/30 15:12:39;;;;;;;3.17;2.55;;;18.50;65.70;;;;;;5064879;28;20062;-39
2020/12/30 15:15:05;;;;;;;3.30;2.63;;;18.50;65.80;;;;;;5068745;28;20066;-40
2020/12/30 15:17:30;;;;;;;2.97;2.67;;;18.50;65.90;;;;;;5053838;28;20492;-45
2020/12/30 15:19:56;;;;;;;2.92;2.72;;;18.50;65.70;;;;;;5061001;28;20048;-41
2020/12/30 15:22:22;;;;;;;3.03;2.58;;;18.50;65.90;;;;;;5061950;28;20915;-41
2020/12/30 15:24:47;;;;;;;3.60;2.63;;;18.50;65.60;;;;;;5068348;28;20044;-42
2020/12/30 15:27:13;;;;;;;2.30;2.10;;;18.50;65.80;;;;;;5068123;28;20058;-41
2020/12/30 15:29:39;;;;;;;2.35;2.13;;;18.50;65.90;;;;;;5043315;28;20040;-42
2020/12/30 15:32:04;;;;;;;2.28;2.08;;;18.50;65.80;;;;;;5061570;28;20044;-42
2020/12/30 15:34:30;;;;;;;4.80;2.55;;;18.50;65.90;;;;;;5062577;28;20961;-42
2020/12/30 15:36:56;;;;;;;2.45;2.25;;;18.50;65.90;;;;;;5050656;28;20448;-42
2020/12/30 15:39:22;;;;;;;2.17;1.95;;;18.50;65.90;;;;;;5060530;28;20100;-42
2020/12/30 15:41:47;;;;;;;4.20;2.30;;;18.50;65.90;;;;;;5060552;28;20565;-42
2020/12/30 15:44:13;;;;;;;2.78;2.30;;;18.50;65.90;;;;;;5055656;28;20047;-39
2020/12/30 15:46:39;;;;;;;2.30;1.88;;;18.50;65.90;;;;;;5049145;28;20082;-42
2020/12/30 15:49:04;;;;;;;5.00;2.30;;;18.50;65.80;;;;;;5047594;28;20678;-41
2020/12/30 15:51:30;;;;;;;3.63;2.25;;;18.50;65.90;;;;;;5055507;28;20044;-42
2020/12/30 15:53:55;;;;;;;2.50;2.30;;;18.50;66.10;;;;;;5053154;28;20089;-42
2020/12/30 15:56:21;;;;;;;2.30;2.10;;;18.50;66.30;;;;;;5061881;28;20091;-42
2020/12/30 15:58:46;;;;;;;2.17;1.80;;;18.50;66.50;;;;;;5061322;28;20040;-42
2020/12/30 16:01:12;;;;;;;2.22;1.88;;;18.50;66.60;;;;;;5052383;28;20053;-41
2020/12/30 16:03:37;;;;;;;2.00;1.77;;;18.60;66.70;;;;;;5056312;28;20061;-46
2020/12/30 16:06:04;;;;;;;5.28;1.80;;;18.60;66.50;;;;;;5059275;28;20052;-44
2020/12/30 16:08:30;;;;;;;1.95;1.60;;;18.60;66.30;;;;;;5061571;28;20066;-43
2020/12/30 16:10:56;;;;;;;2.45;1.83;;;18.70;66.50;;;;;;5059511;28;20423;-42
2020/12/30 16:13:21;;;;;;;3.85;1.80;;;18.70;66.30;;;;;;5054905;28;20124;-44
2020/12/30 16:15:47;;;;;;;3.70;1.95;;;18.80;66.10;;;;;;5055716;28;20057;-44
2020/12/30 16:18:13;;;;;;;2.70;2.00;;;18.80;66.00;;;;;;5066229;28;20135;-42
2020/12/30 16:20:38;;;;;;;3.08;1.77;;;18.70;66.30;;;;;;5050940;28;20500;-43
2020/12/30 16:23:04;;;;;;;2.53;1.60;;;18.70;66.30;;;;;;5047052;28;20404;-42
2020/12/30 16:25:29;;;;;;;1.80;1.70;;;18.70;66.20;;;;;;5061629;28;20041;-41
2020/12/30 16:27:55;;;;;;;1.40;1.30;;;18.70;66.20;;;;;;5063465;28;20111;-45
2020/12/30 16:30:22;;;;;;;2.17;1.98;;;18.70;66.00;;;;;;5066295;28;20036;-40
2020/12/30 16:32:47;;;;;;;1.60;1.50;;;18.70;66.00;;;;;;5059851;28;20058;-46
2020/12/30 16:35:14;;;;;;;2.95;1.55;;;18.70;66.20;;;;;;5059829;28;20407;-42
2020/12/30 16:37:39;;;;;;;2.13;1.60;;;18.70;66.00;;;;;;5061181;28;20816;-41
2020/12/30 16:40:05;;;;;;;1.80;1.70;;;18.70;66.00;;;;;;5063517;28;20098;-44
2020/12/30 16:42:30;;;;;;;1.90;1.80;;;18.70;65.80;;;;;;5061884;28;20115;-36
2020/12/30 16:44:56;;;;;;;1.77;1.60;;;18.70;65.70;;;;;;5059492;28;20028;-42
2020/12/30 16:47:21;;;;;;;1.55;1.20;;;18.70;65.80;;;;;;5064026;28;20451;-39
2020/12/30 16:49:47;;;;;;;1.75;1.38;;;18.70;65.80;;;;;;5061260;28;20036;-42
2020/12/30 16:52:13;;;;;;;1.30;1.20;;;18.70;65.70;;;;;;5062295;28;20501;-45
2020/12/30 16:54:38;;;;;;;1.48;1.38;;;18.80;66.50;;;;;;5065575;28;20021;-42
2020/12/30 16:57:04;;;;;;;2.47;1.20;;;18.80;65.70;;;;;;5060109;28;20076;-41
2020/12/30 16:59:30;;;;;;;2.95;1.45;;;18.70;65.60;;;;;;5063145;28;20059;-42
2020/12/30 17:01:56;;;;;;;1.50;1.40;;;18.80;65.90;;;;;;5059759;28;20063;-41
2020/12/30 17:04:21;;;;;;;3.40;1.40;;;18.80;65.90;;;;;;5062715;28;20028;-45
2020/12/30 17:06:53;;;;;;;4.95;1.67;;;18.80;65.60;;;;;;5064180;28;20399;-43
2020/12/30 17:09:19;;;;;;;2.72;1.30;;;18.80;65.60;;;;;;5066136;28;20594;-44
2020/12/30 17:11:54;;;;;;;4.78;1.48;;;18.80;65.50;;;;;;5060959;28;20051;-41
2020/12/30 17:14:20;;;;;;;7.07;1.60;;;18.90;65.50;;;;;;5061413;28;20408;-41
2020/12/30 17:16:50;;;;;;;2.63;1.70;;;18.80;66.00;;;;;;5065124;28;20051;-41
2020/12/30 17:19:15;;;;;;;3.38;1.38;;;18.80;65.90;;;;;;5061831;28;20021;-42
2020/12/30 17:21:54;;;;;;;2.13;1.40;;;18.70;65.70;;;;;;5069125;28;20017;-42
2020/12/30 17:24:24;;;;;;;3.20;1.33;;;18.70;65.70;;;;;;5066627;28;20021;-43
2020/12/30 17:27:00;;;;;;;3.22;1.20;;;18.70;65.70;;;;;;5063519;28;20517;-42
2020/12/30 17:29:28;;;;;;;1.85;1.17;;;18.70;65.60;;;;;;5062462;28;20028;-41
2020/12/30 17:31:54;;;;;;;3.15;1.50;;;18.70;65.70;;;;;;5060257;28;20036;-40
2020/12/30 17:34:20;;;;;;;2.60;1.20;;;18.70;65.70;;;;;;5064681;28;20024;-41
2020/12/30 17:36:46;;;;;;;1.80;1.42;;;18.60;65.70;;;;;;5067020;28;20091;-41
2020/12/30 17:39:11;;;;;;;1.77;1.10;;;18.60;65.70;;;;;;5067479;28;20052;-41
2020/12/30 17:41:37;;;;;;;1.70;1.13;;;18.60;65.60;;;;;;5062731;28;20104;-41
2020/12/30 17:44:03;;;;;;;2.63;1.25;;;18.60;65.70;;;;;;5063101;28;20025;-42
2020/12/30 17:46:29;;;;;;;1.65;1.40;;;18.60;65.70;;;;;;5064585;28;20082;-43
2020/12/30 17:48:54;;;;;;;1.20;1.10;;;18.60;65.70;;;;;;5066431;28;20024;-41
2020/12/30 17:51:20;;;;;;;1.30;1.20;;;18.50;65.70;;;;;;5062445;28;20064;-41
2020/12/30 17:53:46;;;;;;;1.52;1.15;;;18.50;65.60;;;;;;5066701;28;20499;-41
2020/12/30 17:56:11;;;;;;;2.10;1.58;;;18.50;65.60;;;;;;5062785;28;20124;-41
2020/12/30 17:58:37;;;;;;;1.92;1.20;;;18.60;66.40;;;;;;5068610;28;20017;-43
2020/12/30 18:01:06;;;;;;;2.45;1.30;;;18.50;65.50;;;;;;5068948;28;20115;-40
2020/12/30 18:03:31;;;;;;;1.60;1.23;;;18.50;65.60;;;;;;5070866;28;20510;-41
2020/12/30 18:05:58;;;;;;;1.75;1.50;;;18.50;65.60;;;;;;5068236;28;20030;-41
2020/12/30 18:08:24;;;;;;;1.70;1.27;;;18.50;65.50;;;;;;5065431;28;20024;-41
2020/12/30 18:10:49;;;;;;;1.90;1.23;;;18.50;65.50;;;;;;5067718;28;20129;-41
2020/12/30 18:13:15;;;;;;;2.22;1.33;;;18.50;65.50;;;;;;5068605;28;20488;-42
2020/12/30 18:15:41;;;;;;;1.23;1.10;;;18.50;65.60;;;;;;5067419;28;20039;-44
2020/12/30 18:18:07;;;;;;;1.50;1.38;;;18.50;65.50;;;;;;5065802;28;20452;-41
2020/12/30 18:20:32;;;;;;;1.65;1.40;;;18.50;65.50;;;;;;5063563;28;20096;-39
2020/12/30 18:22:58;;;;;;;1.35;1.25;;;18.40;65.40;;;;;;5064544;28;20032;-43
2020/12/30 18:25:24;;;;;;;1.67;1.23;;;18.40;65.60;;;;;;5069102;28;20033;-41
2020/12/30 18:27:49;;;;;;;1.33;1.17;;;18.40;65.50;;;;;;5069781;28;20396;-42
2020/12/30 18:30:15;;;;;;;2.33;1.50;;;18.40;65.40;;;;;;5064344;28;20043;-43
2020/12/30 18:32:40;;;;;;;0.85;0.85;;;18.40;65.40;;;;;;5067905;28;20493;-41
2020/12/30 18:35:06;;;;;;;1.30;1.00;;;18.40;65.40;;;;;;5065427;28;20052;-37
2020/12/30 18:37:35;;;;;;;1.27;1.17;;;18.40;65.40;;;;;;5063727;28;20155;-41
2020/12/30 18:40:03;;;;;;;1.17;1.08;;;18.40;65.40;;;;;;5065975;28;20025;-42
2020/12/30 18:42:28;;;;;;;1.25;1.15;;;18.40;65.30;;;;;;5069437;28;20067;-43
2020/12/30 18:44:54;;;;;;;1.38;1.27;;;18.40;65.50;;;;;;5062559;28;20075;-42
2020/12/30 18:47:20;;;;;;;1.40;1.30;;;18.30;65.40;;;;;;5066682;28;20076;-42
2020/12/30 18:49:45;;;;;;;2.55;1.13;;;18.40;65.40;;;;;;5069024;28;20025;-43
2020/12/30 18:52:11;;;;;;;1.08;1.00;;;18.40;65.30;;;;;;5065219;28;20116;-43
2020/12/30 18:54:36;;;;;;;1.50;1.30;;;18.40;65.30;;;;;;5072612;28;20400;-42
2020/12/30 18:57:03;;;;;;;2.03;1.20;;;18.40;65.30;;;;;;5068909;28;20051;-43
2020/12/30 18:59:28;;;;;;;3.30;1.07;;;18.30;65.40;;;;;;4715062;28;10000133;-42
2020/12/30 19:01:54;;;;;;;2.85;1.00;;;18.30;65.30;;;;;;5062473;28;20037;-41
2020/12/30 19:04:21;;;;;;;1.55;1.00;;;18.30;65.40;;;;;;5064054;28;20024;-41
2020/12/30 19:06:48;;;;;;;2.00;1.25;;;18.30;65.50;;;;;;5066084;28;20416;-42
2020/12/30 19:09:14;;;;;;;6.25;1.13;;;18.30;65.50;;;;;;5063510;28;20066;-44
2020/12/30 19:11:39;;;;;;;1.90;1.10;;;18.30;66.30;;;;;;5060862;28;20566;-41
2020/12/30 19:14:05;;;;;;;2.65;1.25;;;18.30;65.40;;;;;;5066173;28;20028;-41
2020/12/30 19:16:31;;;;;;;1.20;1.05;;;18.30;65.50;;;;;;5064221;28;20512;-45
2020/12/30 19:18:57;;;;;;;5.53;1.42;;;18.30;65.50;;;;;;5064227;28;20056;-42
2020/12/30 19:21:23;;;;;;;2.17;1.05;;;18.30;65.50;;;;;;5065445;28;20593;-42
2020/12/30 19:23:48;;;;;;;6.88;1.60;;;18.30;65.50;;;;;;5062435;28;20032;-37
2020/12/30 19:26:14;;;;;;;1.30;1.20;;;18.30;65.50;;;;;;5063707;28;20036;-41
2020/12/30 19:28:40;;;;;;;1.85;1.00;;;18.30;65.60;;;;;;5065251;28;20025;-41
2020/12/30 19:31:06;;;;;;;4.43;1.17;;;18.30;66.30;;;;;;5063799;28;20051;-40
2020/12/30 19:33:32;;;;;;;1.73;1.17;;;18.30;65.60;;;;;;5066232;28;20024;-40
2020/12/30 19:35:57;;;;;;;2.45;1.45;;;18.30;65.60;;;;;;5063098;28;20819;-41
2020/12/30 19:38:23;;;;;;;4.30;1.45;;;18.30;65.90;;;;;;5063385;28;20032;-40
2020/12/30 19:40:48;;;;;;;6.55;1.58;;;18.30;65.80;;;;;;5062592;28;20048;-38
2020/12/30 19:43:14;;;;;;;3.70;1.20;;;18.30;65.80;;;;;;5062994;28;20082;-41
2020/12/30 19:45:39;;;;;;;4.65;1.20;;;18.40;66.70;;;;;;5065325;28;20070;-38
2020/12/30 19:48:05;;;;;;;4.17;1.50;;;18.30;65.90;;;;;;4709141;28;10000336;-42
2020/12/30 19:50:30;;;;;;;3.50;1.67;;;18.30;65.90;;;;;;5061406;28;20273;-41
2020/12/30 19:52:57;;;;;;;6.78;1.65;;;18.30;65.90;;;;;;5058809;28;20048;-41
2020/12/30 19:55:25;;;;;;;1.58;1.30;;;18.30;65.90;;;;;;5064830;28;20112;-41
2020/12/30 19:57:54;;;;;;;6.45;1.77;;;18.30;65.90;;;;;;5063083;28;20060;-42
2020/12/30 20:00:20;;;;;;;2.30;1.23;;;18.30;66.00;;;;;;5086187;28;20031;-41
2020/12/30 20:02:46;;;;;;;1.63;1.38;;;18.30;66.10;;;;;;5060039;28;20059;-41
2020/12/30 20:05:11;;;;;;;2.75;1.48;;;18.30;66.20;;;;;;5061355;28;20027;-40
2020/12/30 20:07:37;;;;;;;3.55;1.00;;;18.30;66.30;;;;;;5053669;28;20033;-41
2020/12/30 20:10:03;;;;;;;2.15;1.20;;;18.30;66.30;;;;;;5062918;28;20032;-40
2020/12/30 20:12:32;;;;;;;13.05;1.58;;;18.30;66.40;;;;;;5065837;28;20033;-41
2020/12/30 20:14:59;;;;;;;1.63;1.20;;;18.20;66.30;;;;;;5061418;28;20032;-41
2020/12/30 20:17:26;;;;;;;6.82;1.02;;;18.20;66.40;;;;;;5060611;28;20040;-39
2020/12/30 20:19:53;;;;;;;4.82;1.30;;;18.20;66.40;;;;;;5062735;28;20031;-41
2020/12/30 20:22:19;;;;;;;1.23;1.13;;;18.30;66.30;;;;;;5047577;28;20711;-41
2020/12/30 20:24:44;;;;;;;4.03;1.33;;;18.20;66.30;;;;;;5065977;28;20059;-41
2020/12/30 20:27:10;;;;;;;4.53;1.40;;;18.20;66.40;;;;;;5066422;28;20037;-41
2020/12/30 20:29:35;;;;;;;1.08;0.98;;;18.20;66.40;;;;;;5061325;28;20077;-41
2020/12/30 20:32:01;;;;;;;3.50;1.58;;;18.20;66.50;;;;;;5063692;28;20058;-41
2020/12/30 20:34:26;;;;;;;10.07;1.40;;;18.20;66.40;;;;;;5061725;28;20040;-41
2020/12/30 20:36:52;;;;;;;2.65;1.50;;;18.20;66.50;;;;;;5062414;28;20523;-39
2020/12/30 20:39:18;;;;;;;2.97;1.48;;;18.20;66.40;;;;;;5063171;28;20083;-42
2020/12/30 20:41:44;;;;;;;4.93;1.50;;;18.20;66.50;;;;;;5063042;28;20081;-43
2020/12/30 20:44:10;;;;;;;3.65;1.50;;;18.20;66.70;;;;;;5059450;28;20036;-40
2020/12/30 20:46:37;;;;;;;4.55;1.50;;;18.20;66.80;;;;;;5062356;28;20675;-40
2020/12/30 20:49:02;;;;;;;1.77;1.58;;;18.20;66.80;;;;;;5062438;28;20032;-40
2020/12/30 20:51:28;;;;;;;2.70;1.30;;;18.20;66.80;;;;;;5064240;28;20028;-40
2020/12/30 20:53:53;;;;;;;5.47;1.40;;;18.20;66.80;;;;;;5061600;28;20047;-41
2020/12/30 20:56:21;;;;;;;1.70;1.45;;;18.30;66.90;;;;;;5062900;28;20119;-41
2020/12/30 20:58:47;;;;;;;6.13;2.13;;;18.20;66.80;;;;;;5064699;28;20033;-41
2020/12/30 21:01:12;;;;;;;4.82;1.52;;;18.30;67.70;;;;;;5061300;28;20044;-41
2020/12/30 21:03:39;;;;;;;5.47;1.85;;;18.30;66.90;;;;;;5063246;28;20054;-43
2020/12/30 21:06:07;;;;;;;2.13;1.70;;;18.30;66.90;;;;;;5064277;28;20028;-42
2020/12/30 21:08:34;;;;;;;7.28;1.75;;;18.30;66.90;;;;;;5059252;28;20113;-42
2020/12/30 21:11:08;;;;;;;4.75;1.80;;;18.20;66.90;;;;;;5063902;28;20087;-44
2020/12/30 21:13:38;;;;;;;3.95;1.67;;;18.30;66.90;;;;;;5059937;28;20097;-40
2020/12/30 21:16:04;;;;;;;3.42;1.38;;;18.30;66.90;;;;;;5062268;28;20063;-42
2020/12/30 21:18:30;;;;;;;3.40;1.80;;;18.20;67.30;;;;;;5063735;28;20038;-42
2020/12/30 21:20:56;;;;;;;3.72;1.85;;;18.20;66.90;;;;;;5062978;28;20575;-40
2020/12/30 21:23:21;;;;;;;2.08;1.80;;;18.20;66.90;;;;;;5061304;28;20025;-41
2020/12/30 21:25:47;;;;;;;2.63;1.55;;;18.20;66.90;;;;;;5059824;28;20760;-40
2020/12/30 21:28:13;;;;;;;10.98;1.70;;;18.20;66.90;;;;;;5063320;28;20028;-40
2020/12/30 21:30:38;;;;;;;3.70;1.48;;;18.20;66.90;;;;;;5066520;28;20115;-40
2020/12/30 21:33:04;;;;;;;2.90;1.50;;;18.30;66.90;;;;;;5060066;28;20519;-40
2020/12/30 21:35:30;;;;;;;2.55;1.90;;;18.20;66.90;;;;;;5061069;28;20045;-40
2020/12/30 21:37:56;;;;;;;4.95;1.52;;;18.20;67.70;;;;;;5061604;28;20048;-42
2020/12/30 21:40:22;;;;;;;1.70;1.38;;;18.20;66.90;;;;;;5062621;28;20475;-40
2020/12/30 21:42:47;;;;;;;3.17;1.40;;;18.20;66.80;;;;;;5061037;28;20029;-40
2020/12/30 21:45:13;;;;;;;3.60;1.70;;;18.20;66.90;;;;;;5060356;28;20028;-42
2020/12/30 21:47:38;;;;;;;4.40;1.50;;;18.20;66.90;;;;;;5058853;28;20066;-40
2020/12/30 21:50:04;;;;;;;8.10;1.55;;;18.20;66.80;;;;;;5060208;28;20627;-42
2020/12/30 21:52:30;;;;;;;3.00;1.30;;;18.20;66.80;;;;;;5060809;28;20171;-41
2020/12/30 21:54:55;;;;;;;7.22;1.67;;;18.20;67.50;;;;;;5062747;28;20033;-40
2020/12/30 21:57:27;;;;;;;8.02;1.40;;;18.20;66.70;;;;;;5063188;28;20039;-42
2020/12/30 21:59:53;;;;;;;5.07;1.48;;;18.20;66.60;;;;;;5055555;28;20492;-40
2020/12/30 22:02:19;;;;;;;2.95;1.60;;;18.20;66.70;;;;;;5055846;28;20025;-42
2020/12/30 22:04:46;;;;;;;5.63;1.70;;;18.20;66.60;;;;;;5061365;28;20102;-41
2020/12/30 22:07:11;;;;;;;3.95;1.50;;;18.20;66.60;;;;;;5060492;28;20029;-41
2020/12/30 22:09:37;;;;;;;2.47;1.30;;;18.30;66.70;;;;;;5058613;28;20433;-42
2020/12/30 22:12:03;;;;;;;1.75;1.52;;;18.20;67.40;;;;;;5053686;28;20265;-40
2020/12/30 22:14:28;;;;;;;3.65;1.55;;;18.20;67.10;;;;;;5060797;28;20039;-41